createdAt,value
2018-02-22T00:00:26.215Z,26.30
2018-02-22T00:02:53.716Z,27.47
2018-02-22T00:05:21.411Z,27.43
2018-02-22T00:07:48.930Z,26.47
2018-02-22T00:10:16.653Z,26.97
2018-02-22T00:12:44.152Z,24.80
2018-02-22T00:15:11.655Z,27.90
2018-02-22T00:17:39.169Z,27.57
2018-02-22T00:20:07.708Z,27.77
2018-02-22T00:22:36.084Z,28.63
2018-02-22T00:25:03.593Z,29.90
2018-02-22T00:27:31.312Z,28.10
2018-02-22T00:29:58.823Z,27.57
2018-02-22T00:32:26.402Z,26.30
2018-02-22T00:34:53.947Z,27.60
2018-02-22T00:37:21.756Z,27.80
2018-02-22T00:39:49.261Z,28.27
2018-02-22T00:42:17.211Z,30.57
2018-02-22T00:44:44.717Z,27.70
2018-02-22T00:47:12.222Z,30.10
2018-02-22T00:49:39.905Z,29.33
2018-02-22T00:52:08.322Z,28.83
2018-02-22T00:54:35.923Z,27.47
2018-02-22T00:57:04.478Z,28.83
2018-02-22T00:59:32.004Z,28.30
2018-02-22T01:01:59.659Z,29.80
2018-02-22T01:04:27.175Z,28.97
2018-02-22T01:06:54.699Z,29.70
2018-02-22T01:09:22.205Z,29.20
2018-02-22T01:11:50.474Z,29.87
2018-02-22T01:14:17.978Z,29.57
2018-02-22T01:16:45.659Z,29.27
2018-02-22T01:19:13.156Z,27.60
2018-02-22T01:21:41.647Z,30.00
2018-02-22T01:24:09.915Z,28.07
2018-02-22T01:26:37.630Z,29.23
2018-02-22T01:29:05.135Z,28.90
2018-02-22T01:31:32.875Z,28.27
2018-02-22T01:34:01.878Z,27.70
2018-02-22T01:36:29.419Z,27.03
2018-02-22T01:38:56.911Z,28.77
2018-02-22T01:41:25.188Z,29.20
2018-02-22T01:43:53.491Z,29.20
2018-02-22T01:46:20.995Z,28.90
2018-02-22T01:48:50.015Z,29.13
2018-02-22T01:51:17.727Z,30.53
2018-02-22T01:53:45.497Z,29.57
2018-02-22T01:56:13.127Z,28.80
2018-02-22T01:58:40.611Z,28.90
2018-02-22T02:01:08.477Z,29.03
2018-02-22T02:03:35.983Z,27.37
2018-02-22T02:06:03.552Z,28.67
2018-02-22T02:08:31.159Z,28.37
2018-02-22T02:10:58.664Z,29.30
2018-02-22T02:13:26.384Z,30.37
2018-02-22T02:15:54.146Z,29.50
2018-02-22T02:18:21.674Z,28.97
2018-02-22T02:20:49.186Z,28.80
2018-02-22T02:23:17.459Z,27.90
2018-02-22T02:25:44.971Z,28.50
2018-02-22T02:28:12.621Z,27.90
2018-02-22T02:30:40.129Z,28.03
2018-02-22T02:33:07.637Z,28.50
2018-02-22T02:35:35.320Z,27.10
2018-02-22T02:38:03.055Z,30.07
2018-02-22T02:40:30.695Z,28.73
2018-02-22T02:42:59.240Z,26.80
2018-02-22T02:45:26.992Z,28.20
2018-02-22T02:47:54.588Z,29.33
2018-02-22T02:50:22.860Z,29.77
2018-02-22T02:52:50.599Z,29.20
2018-02-22T02:55:18.537Z,27.50
2018-02-22T02:57:46.113Z,30.50
2018-02-22T03:00:13.624Z,29.77
2018-02-22T03:02:41.114Z,29.53
2018-02-22T03:05:08.632Z,28.40
2018-02-22T03:07:36.139Z,30.53
2018-02-22T03:10:03.703Z,29.53
2018-02-22T03:12:31.502Z,28.40
2018-02-22T03:14:59.219Z,30.10
2018-02-22T03:17:26.928Z,30.70
2018-02-22T03:19:55.379Z,29.50
2018-02-22T03:22:22.898Z,28.53
2018-02-22T03:24:50.419Z,28.37
2018-02-22T03:27:18.056Z,27.17
2018-02-22T03:29:45.571Z,29.90
2018-02-22T03:32:13.233Z,28.33
2018-02-22T03:34:40.743Z,28.90
2018-02-22T03:37:08.239Z,29.20
2018-02-22T03:39:35.943Z,27.80
2018-02-22T03:42:03.452Z,28.60
2018-02-22T03:44:30.971Z,30.00
2018-02-22T03:46:58.632Z,28.77
2018-02-22T03:49:26.393Z,29.93
2018-02-22T03:51:53.884Z,29.93
2018-02-22T03:54:21.414Z,29.17
2018-02-22T03:56:48.932Z,26.50
2018-02-22T03:59:16.431Z,28.50
2018-02-22T04:01:43.974Z,29.70
2018-02-22T04:04:12.177Z,30.00
2018-02-22T04:06:39.671Z,29.10
2018-02-22T04:09:07.238Z,27.60
2018-02-22T04:11:35.028Z,29.73
2018-02-22T04:14:02.528Z,27.57
2018-02-22T04:16:30.036Z,30.80
2018-02-22T04:18:57.681Z,28.97
2018-02-22T04:21:25.188Z,29.33
2018-02-22T04:23:52.680Z,28.70
2018-02-22T04:26:20.382Z,26.63
2018-02-22T04:28:48.145Z,26.90
2018-02-22T04:31:16.260Z,30.80
2018-02-22T04:33:43.770Z,27.43
2018-02-22T04:36:11.271Z,28.00
2018-02-22T04:38:38.800Z,28.20
2018-02-22T04:41:06.379Z,30.27
2018-02-22T04:43:33.899Z,29.43
2018-02-22T04:46:01.413Z,27.83
2018-02-22T04:48:29.680Z,29.97
2018-02-22T04:50:57.188Z,28.60
2018-02-22T04:53:24.859Z,29.13
2018-02-22T04:55:52.365Z,30.10
2018-02-22T04:58:20.103Z,28.60
2018-02-22T05:00:47.627Z,29.37
2018-02-22T05:03:15.193Z,28.03
2018-02-22T05:05:42.771Z,28.13
2018-02-22T05:08:10.279Z,28.40
2018-02-22T05:10:37.778Z,28.97
2018-02-22T05:13:05.432Z,30.73
2018-02-22T05:15:33.196Z,28.90
2018-02-22T05:18:01.230Z,29.63
2018-02-22T05:20:28.731Z,27.20
2018-02-22T05:22:56.259Z,28.73
2018-02-22T05:25:23.924Z,28.17
2018-02-22T05:27:51.489Z,27.90
2018-02-22T05:30:19.194Z,29.40
2018-02-22T05:32:46.763Z,30.10
2018-02-22T05:35:15.030Z,28.47
2018-02-22T05:37:42.544Z,29.10
2018-02-22T05:40:10.198Z,26.67
2018-02-22T05:42:37.698Z,28.90
2018-02-22T05:45:06.011Z,27.63
2018-02-22T05:47:33.508Z,29.67
2018-02-22T05:50:01.012Z,30.60
2018-02-22T05:52:28.520Z,28.33
2018-02-22T05:54:56.183Z,26.87
2018-02-22T05:57:23.705Z,29.63
2018-02-22T05:59:51.420Z,28.40
2018-02-22T06:02:18.971Z,28.40
2018-02-22T06:04:46.481Z,26.03
2018-02-22T06:07:14.010Z,29.90
2018-02-22T06:09:41.514Z,29.90
2018-02-22T06:12:09.301Z,27.70
2018-02-22T06:14:37.020Z,26.90
2018-02-22T06:17:04.550Z,27.20
2018-02-22T06:19:33.552Z,26.57
2018-02-22T06:22:01.275Z,26.73
2018-02-22T06:24:28.782Z,27.17
2018-02-22T06:26:56.296Z,26.60
2018-02-22T06:29:23.795Z,26.37
2018-02-22T06:31:52.069Z,26.20
2018-02-22T06:34:19.783Z,24.90
2018-02-22T06:36:47.295Z,27.43
2018-02-22T06:39:14.915Z,27.57
2018-02-22T06:41:42.420Z,26.53
2018-02-22T06:44:09.919Z,26.10
2018-02-22T06:46:37.436Z,28.50
2018-02-22T06:49:04.945Z,27.83
2018-02-22T06:51:32.584Z,24.80
2018-02-22T06:54:00.362Z,25.30
2018-02-22T06:56:27.867Z,24.30
2018-02-22T06:58:55.554Z,26.60
2018-02-22T07:01:23.111Z,27.17
2018-02-22T07:03:50.773Z,25.93
2018-02-22T07:06:18.267Z,27.73
2018-02-22T07:08:45.796Z,26.27
2018-02-22T07:11:13.304Z,25.83
2018-02-22T07:13:40.930Z,28.33
2018-02-22T07:16:08.748Z,27.17
2018-02-22T07:18:36.423Z,28.23
2018-02-22T07:21:03.955Z,27.10
2018-02-22T07:23:31.465Z,28.60
2018-02-22T07:25:58.994Z,28.00
2018-02-22T07:28:27.256Z,25.73
2018-02-22T07:30:55.034Z,27.33
2018-02-22T07:33:22.559Z,28.97
2018-02-22T07:35:50.198Z,25.57
2018-02-22T07:38:17.702Z,28.27
2018-02-22T07:40:45.206Z,27.50
2018-02-22T07:43:12.758Z,26.20
2018-02-22T07:45:40.980Z,29.43
2018-02-22T07:48:09.332Z,25.33
2018-02-22T07:50:36.828Z,24.57
2018-02-22T07:53:04.552Z,26.20
2018-02-22T07:55:32.308Z,25.17
2018-02-22T07:57:59.867Z,27.90
2018-02-22T08:00:27.334Z,26.03
2018-02-22T08:02:54.830Z,25.97
2018-02-22T08:05:22.407Z,26.83
2018-02-22T08:07:49.915Z,32.63
2018-02-22T08:10:19.205Z,27.07
2018-02-22T08:12:46.959Z,28.80
2018-02-22T08:17:48.615Z,27.00
2018-02-22T08:20:16.387Z,28.30
2018-02-22T08:22:44.022Z,26.07
2018-02-22T08:25:11.579Z,24.30
2018-02-22T08:27:39.076Z,25.70
2018-02-22T08:30:06.597Z,27.43
2018-02-22T08:32:34.283Z,26.37
2018-02-22T08:35:02.048Z,26.10
2018-02-22T08:37:29.564Z,25.80
2018-02-22T08:39:57.284Z,26.70
2018-02-22T08:42:25.208Z,25.07
2018-02-22T08:44:52.696Z,24.50
2018-02-22T08:47:20.204Z,26.00
2018-02-22T08:49:47.700Z,26.70
2018-02-22T08:52:15.217Z,25.23
2018-02-22T08:54:42.950Z,26.07
2018-02-22T08:57:10.739Z,27.50
2018-02-22T08:59:38.199Z,28.03
2018-02-22T09:02:05.719Z,26.57
2018-02-22T09:04:33.364Z,27.87
2018-02-22T09:07:01.131Z,26.20
2018-02-22T09:09:28.628Z,25.57
2018-02-22T09:11:56.352Z,26.43
2018-02-22T09:14:23.861Z,25.97
2018-02-22T09:16:51.544Z,27.97
2018-02-22T09:19:19.370Z,26.13
2018-02-22T09:21:47.109Z,27.63
2018-02-22T09:24:14.872Z,26.63
2018-02-22T09:26:42.395Z,28.00
2018-02-22T09:29:09.908Z,27.33
2018-02-22T09:31:37.823Z,26.90
2018-02-22T09:34:05.317Z,25.37
2018-02-22T09:36:34.690Z,27.40
2018-02-22T09:39:02.541Z,26.37
2018-02-22T09:41:30.128Z,24.87
2018-02-22T09:43:57.635Z,25.60
2018-02-22T09:46:25.270Z,26.80
2018-02-22T09:48:52.802Z,25.90
2018-02-22T09:51:20.304Z,25.10
2018-02-22T09:53:48.044Z,27.03
2018-02-22T09:56:15.792Z,25.20
2018-02-22T09:58:43.546Z,22.47
2018-02-22T10:01:11.064Z,24.73
2018-02-22T10:03:38.574Z,22.60
2018-02-22T10:06:07.153Z,23.73
2018-02-22T10:08:34.912Z,24.93
2018-02-22T10:11:02.420Z,19.23
2018-02-22T10:13:30.102Z,21.37
2018-02-22T10:15:57.612Z,19.43
2018-02-22T10:18:25.360Z,18.70
2018-02-22T10:20:53.122Z,18.73
2018-02-22T10:23:20.627Z,18.97
2018-02-22T10:25:48.330Z,20.27
2018-02-22T10:28:15.816Z,21.90
2018-02-22T10:30:43.327Z,18.20
2018-02-22T10:33:10.830Z,21.03
2018-02-22T10:35:38.445Z,21.80
2018-02-22T10:38:06.233Z,18.50
2018-02-22T10:40:34.007Z,19.40
2018-02-22T10:43:01.499Z,20.93
2018-02-22T10:45:29.252Z,20.03
2018-02-22T10:47:56.751Z,19.40
2018-02-22T10:50:24.442Z,21.20
2018-02-22T10:52:52.214Z,19.43
2018-02-22T10:55:20.245Z,17.50
2018-02-22T10:57:47.752Z,18.07
2018-02-22T11:00:15.260Z,12.60
2018-02-22T11:02:59.368Z,16.87
2018-02-22T11:05:27.650Z,19.63
2018-02-22T11:07:55.148Z,18.30
2018-02-22T11:10:23.456Z,16.43
2018-02-22T11:12:50.975Z,19.80
2018-02-22T11:15:18.472Z,24.07
2018-02-22T11:17:45.994Z,20.63
2018-02-22T11:20:13.575Z,20.53
2018-02-22T11:22:41.079Z,19.80
2018-02-22T11:25:08.590Z,18.70
2018-02-22T11:27:36.256Z,19.63
2018-02-22T11:30:03.787Z,20.93
2018-02-22T11:32:31.447Z,20.93
2018-02-22T11:34:58.952Z,19.90
2018-02-22T11:37:26.873Z,19.53
2018-02-22T11:39:54.464Z,20.20
2018-02-22T11:42:21.975Z,21.90
2018-02-22T11:44:49.589Z,19.27
2018-02-22T11:47:17.147Z,19.70
2018-02-22T11:49:44.640Z,19.53
2018-02-22T11:52:12.175Z,17.20
2018-02-22T11:54:40.443Z,17.73
2018-02-22T11:57:07.960Z,18.30
2018-02-22T11:59:35.473Z,19.70
2018-02-22T12:02:03.739Z,17.40
2018-02-22T12:04:31.252Z,18.47
2018-02-22T12:06:58.778Z,20.13
2018-02-22T12:09:27.086Z,18.90
2018-02-22T12:11:54.583Z,18.80
2018-02-22T12:14:22.243Z,16.90
2018-02-22T12:16:49.804Z,19.93
2018-02-22T12:19:17.464Z,18.77
2018-02-22T12:21:45.012Z,18.60
2018-02-22T12:24:13.147Z,18.93
2018-02-22T12:26:40.655Z,17.33
2018-02-22T12:29:08.217Z,16.10
2018-02-22T12:31:35.806Z,18.30
2018-02-22T12:34:04.355Z,17.40
2018-02-22T12:36:31.875Z,16.47
2018-02-22T12:38:59.531Z,17.83
2018-02-22T12:41:27.037Z,18.67
2018-02-22T12:43:54.563Z,19.30
2018-02-22T12:46:22.056Z,17.60
2018-02-22T12:48:50.632Z,18.57
2018-02-22T12:51:18.376Z,18.40
2018-02-22T12:53:46.391Z,17.93
2018-02-22T12:56:13.907Z,19.80
2018-02-22T12:58:41.436Z,19.50
2018-02-22T13:01:09.148Z,18.30
2018-02-22T13:03:36.856Z,17.80
2018-02-22T13:06:04.368Z,20.67
2018-02-22T13:08:31.871Z,21.70
2018-02-22T13:10:59.569Z,18.07
2018-02-22T13:13:27.089Z,19.60
2018-02-22T13:15:54.764Z,16.70
2018-02-22T13:18:22.535Z,20.17
2018-02-22T13:20:50.044Z,18.07
2018-02-22T13:23:17.788Z,17.97
2018-02-22T13:25:45.295Z,17.23
2018-02-22T13:28:12.959Z,18.20
2018-02-22T13:30:40.461Z,17.73
2018-02-22T13:33:20.195Z,18.07
2018-02-22T13:35:47.711Z,16.30
2018-02-22T13:38:27.099Z,17.37
2018-02-22T13:40:54.620Z,17.50
2018-02-22T13:43:22.900Z,15.30
2018-02-22T13:45:50.679Z,17.23
2018-02-22T13:48:18.433Z,18.10
2018-02-22T13:50:57.808Z,17.03
2018-02-22T13:53:25.307Z,16.30
2018-02-22T13:55:53.809Z,16.23
2018-02-22T13:58:21.303Z,15.30
2018-02-22T14:01:01.420Z,14.53
2018-02-22T14:03:28.961Z,15.50
2018-02-22T14:05:56.460Z,17.17
2018-02-22T14:08:35.863Z,19.27
2018-02-22T14:11:03.384Z,16.80
2018-02-22T14:13:31.097Z,16.67
2018-02-22T14:15:58.888Z,16.63
2018-02-22T14:18:27.948Z,16.30
2018-02-22T14:20:55.614Z,15.73
2018-02-22T14:23:23.118Z,16.60
2018-02-22T14:25:50.615Z,14.17
2018-02-22T14:28:18.169Z,14.83
2018-02-22T14:30:46.732Z,14.27
2018-02-22T14:33:14.239Z,14.70
2018-02-22T14:35:41.884Z,14.90
2018-02-22T14:38:09.455Z,14.50
2018-02-22T14:40:37.127Z,14.93
2018-02-22T14:43:04.876Z,13.90
2018-02-22T14:45:32.404Z,13.93
2018-02-22T14:47:59.895Z,15.97
2018-02-22T14:50:27.544Z,13.90
2018-02-22T14:52:55.887Z,14.80
2018-02-22T14:55:23.406Z,15.30
2018-02-22T14:57:50.916Z,14.03
2018-02-22T15:00:18.420Z,15.03
2018-02-22T15:02:48.716Z,14.17
2018-02-22T15:05:16.292Z,14.20
2018-02-22T15:07:44.123Z,15.73
2018-02-22T15:10:12.474Z,14.67
2018-02-22T15:12:40.196Z,15.97
2018-02-22T15:15:07.702Z,15.90
2018-02-22T15:17:35.394Z,16.07
2018-02-22T15:20:02.912Z,16.87
2018-02-22T15:22:30.679Z,18.53
2018-02-22T15:24:58.337Z,19.00
2018-02-22T15:27:26.203Z,18.73
2018-02-22T15:29:53.863Z,21.00
2018-02-22T15:32:21.592Z,19.60
2018-02-22T15:34:49.135Z,20.43
2018-02-22T15:37:16.637Z,21.30
2018-02-22T15:39:44.357Z,22.57
2018-02-22T15:42:11.900Z,20.73
2018-02-22T15:44:39.453Z,20.57
2018-02-22T15:47:07.031Z,21.50
2018-02-22T15:49:34.556Z,24.00
2018-02-22T15:52:02.219Z,23.57
2018-02-22T15:54:29.787Z,21.70
2018-02-22T15:56:57.450Z,22.37
2018-02-22T15:59:25.236Z,21.83
2018-02-22T16:01:53.000Z,21.87
2018-02-22T16:04:20.543Z,19.90
2018-02-22T16:06:48.052Z,23.03
2018-02-22T16:09:16.335Z,24.03
2018-02-22T16:11:44.051Z,23.43
2018-02-22T16:14:11.632Z,24.23
2018-02-22T16:16:39.127Z,22.83
2018-02-22T16:19:06.749Z,23.50
2018-02-22T16:21:34.256Z,22.47
2018-02-22T16:24:01.777Z,23.13
2018-02-22T16:26:29.299Z,23.80
2018-02-22T16:28:56.834Z,23.37
2018-02-22T16:31:24.684Z,26.57
2018-02-22T16:33:52.401Z,25.10
2018-02-22T16:36:19.895Z,24.90
2018-02-22T16:38:47.403Z,27.17
2018-02-22T16:41:14.891Z,25.90
2018-02-22T16:43:43.165Z,25.43
2018-02-22T16:46:10.901Z,25.97
2018-02-22T16:48:38.440Z,26.40
2018-02-22T16:51:05.944Z,27.60
2018-02-22T16:53:33.537Z,27.90
2018-02-22T16:56:01.043Z,24.83
2018-02-22T16:58:28.553Z,26.77
2018-02-22T17:00:56.266Z,26.53
2018-02-22T17:03:23.813Z,26.90
2018-02-22T17:05:51.474Z,21.83
2018-02-22T17:08:18.980Z,25.10
2018-02-22T17:10:46.603Z,26.27
2018-02-22T17:13:14.123Z,27.07
2018-02-22T17:15:41.628Z,25.87
2018-02-22T17:18:09.953Z,27.17
2018-02-22T17:20:38.247Z,29.47
2018-02-22T17:23:05.815Z,28.47
2018-02-22T17:25:33.672Z,28.80
2018-02-22T17:28:07.113Z,28.00
2018-02-22T17:30:40.384Z,27.50
2018-02-22T17:33:07.877Z,29.70
2018-02-22T17:35:43.581Z,27.73
2018-02-22T17:38:25.966Z,29.10
2018-02-22T17:41:10.251Z,26.30
2018-02-22T17:43:37.776Z,24.90
2018-02-22T17:46:05.318Z,22.93
2018-02-22T17:48:32.827Z,22.03
2018-02-22T17:51:00.381Z,21.47
2018-02-22T17:53:28.131Z,19.50
2018-02-22T17:55:55.701Z,21.27
2018-02-22T17:58:23.397Z,21.43
2018-02-22T18:00:51.890Z,20.20
2018-02-22T18:03:19.439Z,17.37
2018-02-22T18:05:46.956Z,16.03
2018-02-22T18:08:14.467Z,13.80
2018-02-22T18:10:41.981Z,13.43
2018-02-22T18:13:09.499Z,12.33
2018-02-22T18:15:37.012Z,13.33
2018-02-22T18:18:05.333Z,12.93
2018-02-22T18:20:33.603Z,13.00
2018-02-22T18:23:01.103Z,13.20
2018-02-22T18:25:29.395Z,14.17
2018-02-22T18:27:56.934Z,12.20
2018-02-22T18:30:24.561Z,11.63
2018-02-22T18:32:52.355Z,10.70
2018-02-22T18:35:19.867Z,11.40
2018-02-22T18:37:53.034Z,10.53
2018-02-22T18:40:27.056Z,10.37
2018-02-22T18:42:54.760Z,10.70
2018-02-22T18:45:22.282Z,9.43
2018-02-22T18:47:49.787Z,9.20
2018-02-22T18:50:17.301Z,8.80
2018-02-22T18:52:45.606Z,9.43
2018-02-22T18:55:13.122Z,9.13
2018-02-22T18:57:41.428Z,8.73
2018-02-22T19:00:09.290Z,9.40
2018-02-22T19:02:36.800Z,8.30
2018-02-22T19:05:04.309Z,8.20
2018-02-22T19:07:32.116Z,8.47
2018-02-22T19:09:59.620Z,9.73
2018-02-22T19:12:27.133Z,7.33
2018-02-22T19:14:55.847Z,7.80
2018-02-22T19:17:25.000Z,8.00
2018-02-22T19:19:52.783Z,7.80
2018-02-22T19:22:21.801Z,8.30
2018-02-22T19:24:52.697Z,8.17
2018-02-22T19:27:20.316Z,9.00
2018-02-22T19:29:47.821Z,9.10
2018-02-22T19:32:15.339Z,8.90
2018-02-22T19:34:43.044Z,7.20
2018-02-22T19:37:10.570Z,6.43
2018-02-22T19:39:38.074Z,6.27
2018-02-22T19:42:05.575Z,6.90
2018-02-22T19:44:33.103Z,6.30
2018-02-22T19:47:00.601Z,6.33
2018-02-22T19:49:28.121Z,56.77
2018-02-22T19:51:56.460Z,8.87
2018-02-22T19:54:24.228Z,6.63
2018-02-22T19:56:51.743Z,6.77
2018-02-22T19:59:20.367Z,6.00
2018-02-22T20:01:47.996Z,6.90
2018-02-22T20:04:15.492Z,6.90
2018-02-22T20:06:43.971Z,6.83
2018-02-22T20:09:11.526Z,5.80
2018-02-22T20:11:39.151Z,7.20
2018-02-22T20:14:06.667Z,5.73
2018-02-22T20:16:34.186Z,6.20
2018-02-22T20:19:01.901Z,6.80
2018-02-22T20:21:29.561Z,5.70
2018-02-22T20:23:57.946Z,5.90
2018-02-22T20:26:25.435Z,6.50
2018-02-22T20:28:53.668Z,7.30
2018-02-22T20:31:21.929Z,5.77
2018-02-22T20:33:49.436Z,6.43
2018-02-22T20:36:16.941Z,5.53
2018-02-22T20:38:44.448Z,6.20
2018-02-22T20:41:12.007Z,5.50
2018-02-22T20:43:39.563Z,6.30
2018-02-22T20:46:07.602Z,6.57
2018-02-22T20:48:35.364Z,6.37
2018-02-22T20:51:03.475Z,33.67
2018-02-22T20:53:30.972Z,8.13
2018-02-22T20:55:58.484Z,6.40
2018-02-22T20:58:27.285Z,7.00
2018-02-22T21:00:55.563Z,5.43
2018-02-22T21:03:25.973Z,5.70
2018-02-22T21:05:53.487Z,6.27
2018-02-22T21:08:20.988Z,5.90
2018-02-22T21:10:48.509Z,6.17
2018-02-22T21:13:16.035Z,6.90
2018-02-22T21:15:43.823Z,6.43
2018-02-22T21:18:12.978Z,5.60
2018-02-22T21:20:40.512Z,6.00
2018-02-22T21:23:08.000Z,5.90
2018-02-22T21:25:35.775Z,5.90
2018-02-22T21:28:03.306Z,5.90
2018-02-22T21:30:30.808Z,5.40
2018-02-22T21:32:58.299Z,4.97
2018-02-22T21:35:25.894Z,5.77
2018-02-22T21:37:53.388Z,6.73
2018-02-22T21:40:21.172Z,6.27
2018-02-22T21:42:48.743Z,5.17
2018-02-22T21:45:16.351Z,5.40
2018-02-22T21:47:44.202Z,5.43
2018-02-22T21:50:11.697Z,5.50
2018-02-22T21:52:39.641Z,6.17
2018-02-22T21:55:07.192Z,5.13
2018-02-22T21:57:34.732Z,5.10
2018-02-22T22:00:02.301Z,5.40
2018-02-22T22:02:31.079Z,7.10
2018-02-22T22:05:02.061Z,5.33
2018-02-22T22:07:29.602Z,5.20
2018-02-22T22:09:57.356Z,5.83
2018-02-22T22:12:24.871Z,4.97
2018-02-22T22:14:52.579Z,5.80
2018-02-22T22:17:20.968Z,4.93
2018-02-22T22:19:48.462Z,6.53
2018-02-22T22:22:16.127Z,9.33
2018-02-22T22:24:43.589Z,25.97
2018-02-22T22:27:11.399Z,6.40
2018-02-22T22:29:38.906Z,6.10
2018-02-22T22:32:06.481Z,5.53
2018-02-22T22:34:35.676Z,6.70
2018-02-22T22:37:03.181Z,5.87
2018-02-22T22:39:32.566Z,5.10
2018-02-22T22:42:00.065Z,6.77
2018-02-22T22:44:27.570Z,6.10
2018-02-22T22:46:55.140Z,5.30
2018-02-22T22:49:22.648Z,6.97
2018-02-22T22:51:50.907Z,6.07
2018-02-22T22:54:18.643Z,4.90
2018-02-22T22:56:46.134Z,5.37
2018-02-22T22:59:13.860Z,6.27
2018-02-22T23:01:41.407Z,5.60
2018-02-22T23:04:08.913Z,6.30
2018-02-22T23:06:37.183Z,5.97
2018-02-22T23:09:04.682Z,5.80
2018-02-22T23:11:32.184Z,5.10
2018-02-22T23:14:00.075Z,5.90
2018-02-22T23:16:27.565Z,5.77
2018-02-22T23:18:55.071Z,5.80
2018-02-22T23:21:22.556Z,5.40
2018-02-22T23:23:50.279Z,5.43
2018-02-22T23:26:17.779Z,6.47
2018-02-22T23:28:45.275Z,5.60
2018-02-22T23:31:12.918Z,4.60
2018-02-22T23:33:40.423Z,5.57
2018-02-22T23:36:09.698Z,5.53
2018-02-22T23:38:37.221Z,5.73
2018-02-22T23:41:08.559Z,6.03
2018-02-22T23:43:36.081Z,6.23
2018-02-22T23:46:05.084Z,6.37
2018-02-22T23:48:32.604Z,6.00
2018-02-22T23:51:00.529Z,6.27
2018-02-22T23:53:28.045Z,6.20
2018-02-22T23:55:55.979Z,14.50
2018-02-22T23:58:23.459Z,7.20
